Time;durP1;ratioP1;P1;durP2;ratioP2;P2;SDS_P1;SDS_P2;PMS_P1;PMS_P2;Temp;Humidity;BMP_temperature;BMP_pressure;BME280_temperature;BME280_humidity;BME280_pressure;Samples;Min_cycle;Max_cycle;Signal;HPM_P1;HPM_P2
2023/08/26 00:01:41;;;;;;;142.73;136.45;;;;;;;25.25;46.24;100854.84;5047283;28;20091;-70
2023/08/26 00:04:06;;;;;;;143.98;137.68;;;;;;;25.23;46.28;100854.34;5047537;28;20067;-72
2023/08/26 00:06:33;;;;;;;142.88;136.75;;;;;;;25.22;46.35;100853.56;5045733;28;20038;-70
2023/08/26 00:08:59;;;;;;;140.82;134.73;;;;;;;25.21;46.64;100848.34;5044770;28;20029;-69
2023/08/26 00:11:25;;;;;;;139.80;133.68;;;;;;;25.18;46.56;100847.06;5050163;28;20106;-71
2023/08/26 00:13:50;;;;;;;140.27;134.00;;;;;;;25.18;46.35;100846.28;5039279;28;20106;-70
2023/08/26 00:16:15;;;;;;;138.15;132.20;;;;;;;25.16;46.55;100848.53;5035465;28;20500;-71
2023/08/26 00:18:41;;;;;;;136.93;131.05;;;;;;;25.15;46.10;100846.91;5037603;28;20125;-70
2023/08/26 00:21:06;;;;;;;137.60;131.52;;;;;;;25.13;46.40;100840.91;5051001;28;20037;-70
2023/08/26 00:23:32;;;;;;;141.90;135.60;;;;;;;25.11;46.49;100841.25;5045655;28;20036;-70
2023/08/26 00:25:57;;;;;;;138.48;132.43;;;;;;;25.10;46.51;100842.41;5046522;28;20056;-70
2023/08/26 00:28:23;;;;;;;138.02;132.02;;;;;;;25.09;46.21;100842.75;5053630;28;20436;-70
2023/08/26 00:31:01;;;;;;;138.32;132.40;;;;;;;25.07;46.46;100840.31;5053687;28;20029;-69
2023/08/26 00:33:26;;;;;;;137.13;131.23;;;;;;;25.04;46.10;100843.75;5045293;28;20315;-69
2023/08/26 00:35:52;;;;;;;137.15;131.10;;;;;;;25.03;46.06;100842.16;5039271;28;20488;-70
2023/08/26 00:38:17;;;;;;;139.73;133.80;;;;;;;25.02;45.92;100846.88;5039542;28;20034;-69
2023/08/26 00:40:43;;;;;;;142.27;136.15;;;;;;;25.00;46.26;100843.63;5039168;28;20033;-70
2023/08/26 00:43:09;;;;;;;136.80;130.90;;;;;;;25.00;46.31;100848.34;5045013;28;20427;-70
2023/08/26 00:45:38;;;;;;;136.05;130.18;;;;;;;24.99;46.47;100849.47;5034024;28;20029;-69
2023/08/26 00:48:04;;;;;;;142.77;136.32;;;;;;;24.97;46.16;100854.53;5042897;28;20029;-69
2023/08/26 00:50:29;;;;;;;136.60;130.73;;;;;;;24.95;46.29;100854.09;5048347;28;20029;-71
2023/08/26 00:52:55;;;;;;;136.73;130.85;;;;;;;24.93;45.89;100857.16;5042023;28;20360;-69
2023/08/26 00:55:21;;;;;;;139.88;133.93;;;;;;;24.91;46.04;100848.41;5034180;28;20378;-70
2023/08/26 00:57:47;;;;;;;136.88;130.93;;;;;;;24.89;46.09;100845.16;5042546;28;20111;-70
2023/08/26 01:00:13;;;;;;;137.80;131.90;;;;;;;24.88;46.04;100846.31;5036673;28;20036;-70
2023/08/26 01:02:38;;;;;;;138.40;132.20;;;;;;;24.87;46.21;100846.66;5043969;28;20477;-70
2023/08/26 01:05:07;;;;;;;137.88;131.98;;;;;;;24.87;46.08;100846.66;5052832;28;20126;-70
2023/08/26 01:07:32;;;;;;;;;;;;;;;24.78;45.82;100842.00;5046406;28;20033;-70
2023/08/26 01:09:57;;;;;;;130.48;124.43;;;;;;;24.80;46.26;100844.44;5040878;28;19917;-69
2023/08/26 01:12:31;;;;;;;129.48;123.93;;;;;;;24.77;46.24;100845.94;5040479;28;20412;-69
2023/08/26 01:15:09;;;;;;;132.07;126.20;;;;;;;24.75;45.61;100839.13;5041560;28;20500;-71
2023/08/26 01:17:35;;;;;;;133.05;127.30;;;;;;;24.72;46.06;100843.38;5040112;28;20040;-69
2023/08/26 01:20:03;;;;;;;132.85;127.18;;;;;;;24.72;45.83;100854.41;5046155;28;20108;-70
2023/08/26 01:22:32;;;;;;;133.95;128.25;;;;;;;24.71;45.69;100852.78;5042808;28;20477;-70
2023/08/26 01:24:58;;;;;;;131.18;125.50;;;;;;;24.69;45.72;100844.00;5047590;28;20033;-69
2023/08/26 01:27:24;;;;;;;136.85;130.90;;;;;;;24.68;45.75;100842.41;5040298;28;20049;-69
2023/08/26 01:29:50;;;;;;;133.43;127.63;;;;;;;24.67;45.57;100851.00;5045602;28;20094;-69
2023/08/26 01:32:25;;;;;;;131.38;125.78;;;;;;;24.66;45.81;100846.66;5035124;28;20029;-69
2023/08/26 01:34:54;;;;;;;132.90;127.18;;;;;;;24.61;45.74;100842.94;5036212;28;20121;-70
2023/08/26 01:37:22;;;;;;;132.95;127.25;;;;;;;24.61;45.97;100847.66;5040063;28;20028;-69
2023/08/26 01:39:50;;;;;;;130.48;124.65;;;;;;;24.60;45.73;100843.28;5034233;28;20507;-70
2023/08/26 01:42:19;;;;;;;134.27;128.63;;;;;;;24.58;45.59;100846.38;5045378;28;20120;-69
2023/08/26 01:44:46;;;;;;;132.82;127.07;;;;;;;24.57;45.51;100843.97;5044603;28;20398;-70
2023/08/26 01:47:12;;;;;;;129.95;124.40;;;;;;;24.54;45.75;100844.59;5037342;28;20037;-70
2023/08/26 01:49:37;;;;;;;132.35;126.60;;;;;;;24.53;45.78;100845.75;5034548;28;20032;-69
2023/08/26 01:52:03;;;;;;;132.70;127.03;;;;;;;24.50;45.65;100843.69;5041774;28;20034;-69
2023/08/26 01:54:28;;;;;;;131.88;126.10;;;;;;;24.48;45.56;100844.00;5037395;28;20061;-69
2023/08/26 01:56:54;;;;;;;133.15;127.50;;;;;;;24.45;45.33;100843.84;5037581;28;20117;-69
2023/08/26 01:59:19;;;;;;;130.52;124.35;;;;;;;24.44;45.73;100844.97;5033094;28;20040;-69
2023/08/26 02:01:45;;;;;;;132.07;126.22;;;;;;;24.41;45.39;100849.19;5041467;28;20052;-70
2023/08/26 02:04:10;;;;;;;133.75;128.13;;;;;;;24.40;45.44;100842.06;5036912;28;20108;-69
2023/08/26 02:06:38;;;;;;;130.02;124.50;;;;;;;24.39;45.33;100838.50;5041652;28;20065;-70
2023/08/26 02:09:03;;;;;;;132.30;126.72;;;;;;;24.37;45.43;100843.56;5040218;28;20056;-71
2023/08/26 02:11:29;;;;;;;132.50;126.53;;;;;;;24.34;45.24;100849.75;5042915;28;20063;-69
2023/08/26 02:13:54;;;;;;;130.13;124.47;;;;;;;24.33;45.46;100847.31;5053046;28;20130;-69
2023/08/26 02:16:19;;;;;;;129.30;123.75;;;;;;;24.31;45.52;100844.88;5051181;28;20033;-69
2023/08/26 02:18:45;;;;;;;126.85;121.45;;;;;;;24.30;45.20;100847.97;5037173;28;20414;-69
2023/08/26 02:21:11;;;;;;;130.05;124.35;;;;;;;24.28;45.21;100850.25;5033169;28;20202;-70
2023/08/26 02:23:36;;;;;;;131.02;125.13;;;;;;;24.27;45.23;100840.38;5044652;28;20036;-70
2023/08/26 02:26:02;;;;;;;130.43;124.88;;;;;;;24.24;45.32;100843.78;5045577;28;20155;-69
2023/08/26 02:28:27;;;;;;;130.48;124.93;;;;;;;24.21;45.24;100839.72;5042102;28;20565;-70
2023/08/26 02:30:53;;;;;;;128.10;122.60;;;;;;;24.19;45.50;100845.59;5034758;28;20037;-69
2023/08/26 02:33:18;;;;;;;133.15;127.45;;;;;;;24.18;45.08;100845.91;5040703;28;20041;-68
2023/08/26 02:35:47;;;;;;;132.80;126.97;;;;;;;24.17;45.13;100850.63;5049817;28;20112;-69
2023/08/26 02:38:13;;;;;;;133.20;127.35;;;;;;;24.16;45.14;100837.16;5044934;28;20047;-69
2023/08/26 02:40:38;;;;;;;129.23;123.47;;;;;;;24.14;44.87;100842.19;5035559;28;20037;-72
2023/08/26 02:43:04;;;;;;;129.05;123.55;;;;;;;24.11;45.35;100840.91;5049022;28;20047;-69
2023/08/26 02:45:30;;;;;;;126.72;121.35;;;;;;;24.09;45.27;100837.69;5032575;28;20568;-69
2023/08/26 02:47:57;;;;;;;132.13;126.38;;;;;;;24.08;45.11;100844.34;5039556;28;20099;-70
2023/08/26 02:50:24;;;;;;;129.88;124.28;;;;;;;24.05;44.97;100839.50;5032385;28;20079;-68
2023/08/26 02:52:49;;;;;;;126.18;120.57;;;;;;;24.05;44.89;100836.72;5038492;28;20648;-70
2023/08/26 02:55:15;;;;;;;131.98;126.25;;;;;;;24.02;44.86;100837.41;5044348;28;20045;-69
2023/08/26 02:57:41;;;;;;;132.30;126.40;;;;;;;24.01;44.77;100841.28;5043831;28;20032;-69
2023/08/26 03:00:07;;;;;;;125.30;119.80;;;;;;;23.99;45.00;100838.06;5033967;28;20069;-69
2023/08/26 03:02:32;;;;;;;122.10;116.70;;;;;;;23.96;44.72;100838.69;5036657;28;20393;-69
2023/08/26 03:04:57;;;;;;;123.35;118.07;;;;;;;23.94;44.80;100839.06;5037635;28;20466;-69
2023/08/26 03:07:23;;;;;;;128.60;123.10;;;;;;;23.92;45.10;100838.56;5044101;28;20033;-69
2023/08/26 03:09:48;;;;;;;128.93;123.43;;;;;;;23.91;44.77;100836.97;5046475;28;20040;-71
2023/08/26 03:12:14;;;;;;;124.57;119.20;;;;;;;23.89;44.97;100839.25;5046123;28;20099;-69
2023/08/26 03:14:39;;;;;;;127.03;121.63;;;;;;;23.87;44.94;100838.75;5048876;28;20041;-69
2023/08/26 03:17:04;;;;;;;128.48;123.00;;;;;;;23.85;44.63;100830.00;5048893;28;20033;-69
2023/08/26 03:19:30;;;;;;;124.10;118.85;;;;;;;23.83;45.05;100846.06;5042796;28;20033;-69
2023/08/26 03:21:55;;;;;;;121.95;116.75;;;;;;;23.81;45.16;100837.28;5032619;28;20043;-69
2023/08/26 03:24:20;;;;;;;124.15;118.75;;;;;;;23.79;45.07;100842.38;5036074;28;20431;-70
2023/08/26 03:26:46;;;;;;;124.32;119.00;;;;;;;23.77;44.85;100841.88;5032511;28;20081;-69
2023/08/26 03:29:11;;;;;;;126.50;120.70;;;;;;;23.75;44.59;100844.94;5032029;28;20041;-69
2023/08/26 03:31:38;;;;;;;123.28;117.93;;;;;;;23.73;44.67;100835.38;5048151;28;20042;-70
2023/08/26 03:34:03;;;;;;;123.10;117.70;;;;;;;23.72;44.69;100839.25;5039992;28;20389;-68
2023/08/26 03:36:29;;;;;;;126.75;121.25;;;;;;;23.69;44.82;100840.72;5036672;28;20037;-70
2023/08/26 03:38:55;;;;;;;122.57;117.18;;;;;;;23.68;44.54;100841.06;5031030;28;20045;-70
2023/08/26 03:41:21;;;;;;;123.13;117.82;;;;;;;23.66;44.53;100840.56;5043113;28;20036;-69
2023/08/26 03:43:46;;;;;;;123.93;118.63;;;;;;;23.64;44.56;100842.88;5049563;28;20041;-69
2023/08/26 03:46:12;;;;;;;125.93;120.32;;;;;;;23.61;44.55;100838.81;5037061;28;20037;-70
2023/08/26 03:48:37;;;;;;;121.63;116.50;;;;;;;23.59;45.05;100846.59;5037349;28;20076;-70
2023/08/26 03:51:02;;;;;;;120.60;115.45;;;;;;;23.58;44.81;100847.72;5043792;28;20488;-70
2023/08/26 03:53:28;;;;;;;123.30;118.03;;;;;;;23.55;44.67;100843.66;5049501;28;20048;-71
2023/08/26 03:55:54;;;;;;;125.10;119.60;;;;;;;23.53;44.60;100845.94;5035991;28;20083;-69
2023/08/26 03:58:19;;;;;;;119.35;114.30;;;;;;;23.51;44.91;100844.66;5031558;28;20038;-69
2023/08/26 04:00:45;;;;;;;122.97;117.65;;;;;;;23.49;44.67;100847.75;5039065;28;20033;-69
2023/08/26 04:03:10;;;;;;;122.55;117.28;;;;;;;23.48;44.67;100846.13;5046342;28;20045;-69
2023/08/26 04:05:36;;;;;;;122.65;117.45;;;;;;;23.46;44.45;100850.34;5048462;28;20512;-69
2023/08/26 04:08:02;;;;;;;122.32;117.10;;;;;;;23.43;44.51;100849.03;5038073;28;20041;-69
2023/08/26 04:10:27;;;;;;;121.32;116.03;;;;;;;23.41;44.31;100848.59;5042841;28;20145;-69
2023/08/26 04:12:53;;;;;;;122.30;117.00;;;;;;;23.40;44.82;100854.41;5036739;28;20057;-69
2023/08/26 04:15:18;;;;;;;118.95;113.85;;;;;;;23.37;44.71;100855.06;5031308;28;20057;-69
2023/08/26 04:17:44;;;;;;;120.88;115.55;;;;;;;23.35;44.49;100863.66;5038016;28;20044;-70
2023/08/26 04:20:11;;;;;;;120.82;115.60;;;;;;;23.33;44.47;100861.25;5031073;28;20029;-70
2023/08/26 04:22:37;;;;;;;119.18;114.07;;;;;;;23.30;44.33;100861.88;5035521;28;20128;-70
2023/08/26 04:25:03;;;;;;;117.85;112.65;;;;;;;23.29;44.41;100862.22;5030589;28;20029;-70
2023/08/26 04:27:28;;;;;;;117.72;112.63;;;;;;;23.27;44.32;100868.03;5033417;28;20048;-70
2023/08/26 04:29:54;;;;;;;119.70;114.50;;;;;;;23.25;44.81;100875.81;5040208;28;20037;-70
2023/08/26 04:32:19;;;;;;;118.82;113.70;;;;;;;23.24;44.37;100876.97;5044013;28;20049;-70
2023/08/26 04:34:45;;;;;;;120.65;115.47;;;;;;;23.21;44.57;100868.53;5039095;28;20041;-70
2023/08/26 04:37:12;;;;;;;120.80;115.57;;;;;;;23.19;44.45;100882.66;5042262;28;21787;-71
2023/08/26 04:39:38;;;;;;;118.38;113.28;;;;;;;23.17;44.52;100884.09;5042208;28;20033;-71
2023/08/26 04:42:04;;;;;;;115.97;110.72;;;;;;;23.15;44.32;100887.16;5050104;28;20037;-70
2023/08/26 04:44:29;;;;;;;119.45;114.05;;;;;;;23.14;44.51;100891.06;5050900;28;20439;-69
2023/08/26 04:46:55;;;;;;;118.03;112.97;;;;;;;23.11;44.28;100886.22;5050250;28;20056;-70
2023/08/26 04:49:20;;;;;;;116.32;111.38;;;;;;;23.09;44.77;100900.31;5048604;28;20037;-70
2023/08/26 04:51:51;;;;;;;118.93;113.63;;;;;;;23.08;44.53;100892.34;5040295;28;20112;-70
2023/08/26 04:54:16;;;;;;;113.72;108.90;;;;;;;23.06;44.33;100900.16;5047775;28;20112;-69
2023/08/26 04:56:42;;;;;;;115.97;110.97;;;;;;;23.03;44.22;100901.63;5048113;28;20108;-70
2023/08/26 04:59:07;;;;;;;116.32;111.30;;;;;;;23.02;44.24;100905.47;5040561;28;20029;-69
2023/08/26 05:01:33;;;;;;;114.90;109.97;;;;;;;23.00;44.68;100905.00;5032962;28;20060;-69
2023/08/26 05:03:58;;;;;;;115.60;110.32;;;;;;;22.98;44.21;100911.97;5049835;28;20037;-69
2023/08/26 05:06:24;;;;;;;117.65;112.57;;;;;;;22.96;44.28;100909.50;5038827;28;20163;-70
2023/08/26 05:08:49;;;;;;;120.47;115.28;;;;;;;22.95;44.18;100909.81;5049525;28;20037;-70
2023/08/26 05:11:15;;;;;;;114.97;110.00;;;;;;;22.93;44.66;100914.84;5042311;28;20036;-70
2023/08/26 05:13:40;;;;;;;115.85;110.82;;;;;;;22.91;44.69;100923.44;5046423;28;20119;-70
2023/08/26 05:16:06;;;;;;;114.10;109.22;;;;;;;22.89;44.48;100922.94;5045014;28;20048;-69
2023/08/26 05:18:31;;;;;;;114.88;109.68;;;;;;;22.87;44.50;100919.69;5042566;28;20053;-69
2023/08/26 05:20:57;;;;;;;117.97;112.90;;;;;;;22.84;44.59;100923.09;5046444;28;20385;-69
2023/08/26 05:23:22;;;;;;;115.70;110.75;;;;;;;22.83;44.43;100925.03;5038630;28;20037;-69
2023/08/26 05:25:47;;;;;;;114.53;109.47;;;;;;;22.82;44.32;100917.91;5032930;28;20136;-69
2023/08/26 05:28:13;;;;;;;116.32;111.35;;;;;;;22.80;44.55;100920.16;5042079;28;20036;-69
2023/08/26 05:30:39;;;;;;;113.53;108.63;;;;;;;22.78;44.24;100916.09;5041491;28;20178;-68
2023/08/26 05:33:05;;;;;;;113.57;108.68;;;;;;;22.76;44.36;100924.72;5043016;28;20148;-70
2023/08/26 05:35:30;;;;;;;111.68;106.78;;;;;;;22.74;44.43;100921.44;5033732;28;20033;-71
2023/08/26 05:37:56;;;;;;;112.43;107.55;;;;;;;22.72;44.74;100912.69;5037449;28;20052;-70
2023/08/26 05:40:26;;;;;;;116.13;111.15;;;;;;;22.72;44.46;100914.66;5046517;28;20043;-71
2023/08/26 05:42:54;;;;;;;113.05;108.18;;;;;;;22.70;44.67;100920.47;5047703;28;20029;-70
2023/08/26 05:45:19;;;;;;;112.07;107.28;;;;;;;22.68;44.76;100920.00;5040515;28;20047;-69
2023/08/26 05:47:45;;;;;;;111.00;106.22;;;;;;;22.67;44.26;100912.84;5041907;28;20123;-69
2023/08/26 05:50:10;;;;;;;113.93;108.72;;;;;;;22.65;44.75;100913.19;5034860;28;20363;-70
2023/08/26 05:52:35;;;;;;;112.68;107.57;;;;;;;22.64;44.46;100913.50;5044428;28;20404;-69
2023/08/26 05:55:01;;;;;;;110.50;105.70;;;;;;;22.61;44.72;100909.44;5045752;28;20116;-69
2023/08/26 05:57:26;;;;;;;111.93;107.10;;;;;;;22.60;44.52;100909.75;5037075;28;20477;-70
2023/08/26 05:59:52;;;;;;;113.10;108.13;;;;;;;22.58;44.77;100910.09;5041516;28;20072;-71
2023/08/26 06:02:17;;;;;;;109.68;104.93;;;;;;;22.57;44.75;100915.91;5042354;28;20037;-70
2023/08/26 06:04:42;;;;;;;109.45;104.75;;;;;;;22.55;44.38;100909.91;5036247;28;20080;-70
2023/08/26 06:07:08;;;;;;;111.32;106.43;;;;;;;22.54;44.17;100911.84;5032729;28;20045;-70
2023/08/26 06:09:33;;;;;;;110.40;105.65;;;;;;;22.54;44.49;100906.34;5048257;28;20032;-70
2023/08/26 06:11:58;;;;;;;110.13;105.32;;;;;;;22.51;44.25;100906.19;5043155;28;20036;-70
2023/08/26 06:14:24;;;;;;;109.93;105.22;;;;;;;22.50;44.41;100899.03;5038037;28;20381;-71
2023/08/26 06:16:49;;;;;;;111.13;106.28;;;;;;;22.49;44.45;100894.66;5050043;28;20048;-70
2023/08/26 06:19:15;;;;;;;113.07;108.28;;;;;;;22.47;44.52;100898.53;5045498;28;20393;-70
2023/08/26 06:21:40;;;;;;;110.45;105.35;;;;;;;22.46;44.69;100898.88;5033078;28;20328;-69
2023/08/26 06:24:06;;;;;;;111.30;106.40;;;;;;;22.45;44.42;100898.06;5045510;28;20128;-70
2023/08/26 06:26:31;;;;;;;110.50;105.80;;;;;;;22.43;44.31;100903.06;5039019;28;20065;-70
2023/08/26 06:28:57;;;;;;;109.32;104.10;;;;;;;22.43;44.48;100891.25;5045587;28;20032;-71
2023/08/26 06:31:22;;;;;;;106.68;102.03;;;;;;;22.42;44.75;100889.63;5036089;28;20094;-70
2023/08/26 06:33:48;;;;;;;105.13;100.60;;;;;;;22.41;44.81;100897.06;5041942;28;20487;-70
2023/08/26 06:36:13;;;;;;;107.50;102.85;;;;;;;22.41;44.82;100894.31;5034009;28;20037;-70
2023/08/26 06:38:39;;;;;;;107.65;102.30;;;;;;;22.41;44.43;100885.25;5032332;28;20091;-70
2023/08/26 06:41:04;;;;;;;107.78;103.07;;;;;;;22.40;44.71;100886.38;5037873;28;20409;-70
2023/08/26 06:43:30;;;;;;;108.32;103.72;;;;;;;22.38;44.79;100881.19;5041993;28;20120;-70
2023/08/26 06:45:57;;;;;;;105.93;101.38;;;;;;;22.37;44.76;100879.56;5049736;28;20147;-70
2023/08/26 06:48:22;;;;;;;107.00;102.35;;;;;;;22.37;44.37;100887.81;5045053;28;20435;-70
2023/08/26 06:50:49;;;;;;;107.45;102.75;;;;;;;22.36;44.68;100888.16;5044560;28;20522;-69
2023/08/26 06:53:21;;;;;;;103.93;99.43;;;;;;;22.35;44.65;100892.84;5046408;28;20037;-70
2023/08/26 06:55:53;;;;;;;107.82;103.18;;;;;;;22.35;44.49;100881.84;5048492;28;20175;-70
2023/08/26 06:58:20;;;;;;;105.60;101.07;;;;;;;22.35;44.59;100894.78;5041111;28;20102;-71
2023/08/26 07:00:45;;;;;;;105.13;100.53;;;;;;;22.34;45.14;100901.41;5034326;28;20121;-71
2023/08/26 07:03:11;;;;;;;106.53;101.93;;;;;;;22.33;44.60;100891.56;5043749;28;20537;-70
2023/08/26 07:05:38;;;;;;;105.22;100.63;;;;;;;22.32;45.01;100890.72;5031998;28;20037;-70
2023/08/26 07:08:04;;;;;;;107.57;102.88;;;;;;;22.31;45.15;100897.34;5038592;28;20385;-70
2023/08/26 07:10:29;;;;;;;107.35;102.43;;;;;;;22.30;45.09;100894.91;5047043;28;20029;-70
2023/08/26 07:12:55;;;;;;;104.68;100.13;;;;;;;22.28;44.97;100905.44;5041687;28;20029;-72
2023/08/26 07:15:20;;;;;;;103.75;99.28;;;;;;;22.28;44.75;100897.19;5031664;28;20454;-71
2023/08/26 07:17:46;;;;;;;105.80;100.95;;;;;;;22.26;45.16;100908.50;5036246;28;20037;-70
2023/08/26 07:20:12;;;;;;;104.88;100.28;;;;;;;22.25;45.09;100913.22;5046599;28;20033;-70
2023/08/26 07:22:38;;;;;;;106.10;101.40;;;;;;;22.25;45.53;100915.13;5045251;28;21006;-70
2023/08/26 07:25:03;;;;;;;105.30;100.70;;;;;;;22.27;45.50;100921.13;5041899;28;20068;-71
2023/08/26 07:27:29;;;;;;;106.30;101.50;;;;;;;22.27;45.20;100918.38;5035922;28;20482;-70
2023/08/26 07:29:55;;;;;;;105.97;101.38;;;;;;;22.27;45.32;100915.63;5038667;28;20389;-70
2023/08/26 07:32:20;;;;;;;106.15;101.45;;;;;;;22.28;45.74;100911.75;5034509;28;20118;-70
2023/08/26 07:34:45;;;;;;;105.88;101.28;;;;;;;22.30;45.38;100911.44;5045606;28;20055;-70
2023/08/26 07:37:11;;;;;;;110.75;105.45;;;;;;;22.30;45.73;100919.69;5032282;28;20028;-68
2023/08/26 07:39:37;;;;;;;104.70;100.18;;;;;;;22.31;45.94;100913.06;5044642;28;20374;-69
2023/08/26 07:42:03;;;;;;;105.80;101.20;;;;;;;22.33;45.95;100916.31;5041303;28;20039;-70
2023/08/26 07:44:29;;;;;;;104.28;99.80;;;;;;;22.34;45.90;100917.94;5046029;28;20037;-70
2023/08/26 07:46:54;;;;;;;105.10;100.57;;;;;;;22.35;45.92;100916.78;5049582;28;20126;-69
2023/08/26 07:49:19;;;;;;;103.68;99.15;;;;;;;22.38;45.58;100910.66;5039601;28;20074;-70
2023/08/26 07:51:45;;;;;;;104.13;99.47;;;;;;;22.39;45.72;100915.84;5031593;28;20091;-69
2023/08/26 07:54:10;;;;;;;105.55;100.95;;;;;;;22.43;45.58;100916.03;5041631;28;20107;-70
2023/08/26 07:56:35;;;;;;;102.97;98.53;;;;;;;22.46;46.12;100916.19;5047806;28;20230;-70
2023/08/26 07:59:01;;;;;;;107.03;102.25;;;;;;;22.50;45.68;100910.84;5043535;28;20071;-71
2023/08/26 08:01:26;;;;;;;107.03;101.93;;;;;;;22.54;46.04;100911.84;5031215;28;20036;-70
2023/08/26 08:03:52;;;;;;;105.30;100.60;;;;;;;22.58;45.68;100912.00;5047819;28;20378;-70
2023/08/26 08:06:17;;;;;;;107.47;102.68;;;;;;;22.63;46.27;100911.88;5047961;28;20076;-69
2023/08/26 08:08:43;;;;;;;105.40;100.85;;;;;;;22.66;46.36;100917.56;5039026;28;20451;-70
2023/08/26 08:11:08;;;;;;;106.72;102.05;;;;;;;22.69;45.88;100911.41;5046771;28;20045;-70
2023/08/26 08:13:33;;;;;;;107.55;102.78;;;;;;;22.74;46.27;100904.94;5042669;28;20121;-70
2023/08/26 08:15:59;;;;;;;106.32;101.72;;;;;;;22.77;46.21;100904.28;5045941;28;20043;-69
2023/08/26 08:18:24;;;;;;;107.78;103.18;;;;;;;22.82;45.92;100911.59;5052392;28;20040;-69
2023/08/26 08:20:50;;;;;;;110.47;105.68;;;;;;;22.85;46.10;100899.91;5040954;28;20037;-69
2023/08/26 08:23:15;;;;;;;110.43;105.63;;;;;;;22.89;46.47;100917.44;5041922;28;20120;-69
2023/08/26 08:25:40;;;;;;;108.95;104.00;;;;;;;22.93;46.46;100909.31;5043051;28;20125;-70
2023/08/26 08:28:06;;;;;;;115.90;110.90;;;;;;;22.97;46.66;100913.91;5043845;28;20041;-70
2023/08/26 08:30:31;;;;;;;108.53;103.72;;;;;;;23.01;46.74;100923.16;5042849;28;20032;-71
2023/08/26 08:32:57;;;;;;;110.03;105.22;;;;;;;23.06;46.44;100916.69;5040546;28;20042;-72
2023/08/26 08:35:22;;;;;;;109.07;104.43;;;;;;;23.10;46.29;100903.88;5049395;28;20351;-71
2023/08/26 08:37:47;;;;;;;112.03;107.20;;;;;;;23.15;46.60;100905.66;5045432;28;20037;-70
2023/08/26 08:40:13;;;;;;;110.78;106.03;;;;;;;23.20;46.43;100911.00;5047486;28;20037;-70
2023/08/26 08:42:41;;;;;;;109.68;104.93;;;;;;;23.25;46.41;100902.56;5041451;28;20496;-70
2023/08/26 08:45:08;;;;;;;114.07;109.13;;;;;;;23.29;46.52;100909.88;5048784;28;20503;-71
2023/08/26 08:47:34;;;;;;;113.38;108.50;;;;;;;23.35;46.81;100926.25;5035138;28;20095;-70
2023/08/26 08:50:00;;;;;;;113.07;108.20;;;;;;;23.39;46.76;100914.25;5045862;28;20048;-71
2023/08/26 08:52:27;;;;;;;115.13;110.18;;;;;;;23.45;46.40;100917.66;5047494;28;20080;-69
2023/08/26 08:54:52;;;;;;;113.00;107.90;;;;;;;23.49;46.70;100922.19;5036435;28;20519;-70
2023/08/26 08:57:23;;;;;;;118.22;113.13;;;;;;;23.55;46.78;100920.06;5043990;28;20049;-71
2023/08/26 08:59:49;;;;;;;121.38;115.80;;;;;;;23.59;46.64;100920.25;5050715;28;20031;-69
2023/08/26 09:02:14;;;;;;;118.85;113.57;;;;;;;23.63;46.79;100921.19;5050110;28;20033;-71
2023/08/26 09:04:41;;;;;;;117.75;112.72;;;;;;;23.67;46.48;100920.22;5050212;28;20072;-71
2023/08/26 09:07:09;;;;;;;117.60;112.55;;;;;;;23.70;46.70;100919.56;5043496;28;20044;-69
2023/08/26 09:09:35;;;;;;;118.32;113.32;;;;;;;23.75;46.93;100924.13;5054101;28;20028;-69
2023/08/26 09:12:01;;;;;;;120.35;115.15;;;;;;;23.79;46.69;100924.28;5048980;28;20470;-69
2023/08/26 09:14:26;;;;;;;118.68;113.63;;;;;;;23.85;46.65;100925.75;5041070;28;20398;-69
2023/08/26 09:16:54;;;;;;;125.68;120.00;;;;;;;23.88;46.61;100925.06;5032425;28;20037;-71
2023/08/26 09:19:19;;;;;;;119.63;114.43;;;;;;;23.90;47.00;100929.13;5039858;28;20029;-72
2023/08/26 09:21:46;;;;;;;119.43;114.32;;;;;;;23.95;46.47;100917.91;5037383;28;20025;-72
2023/08/26 09:24:16;;;;;;;122.97;117.60;;;;;;;23.98;46.99;100922.75;5047343;28;20469;-68
2023/08/26 09:26:44;;;;;;;122.22;116.90;;;;;;;24.02;46.96;100931.22;5042316;28;20504;-70
2023/08/26 09:29:18;;;;;;;123.13;117.90;;;;;;;24.05;46.77;100936.06;5040442;28;20099;-70
2023/08/26 09:31:45;;;;;;;120.57;115.38;;;;;;;24.09;47.01;100930.69;5031952;28;20108;-70
2023/08/26 09:34:10;;;;;;;120.03;114.82;;;;;;;24.12;47.00;100927.28;5042004;28;20033;-70
2023/08/26 09:36:40;;;;;;;121.68;116.50;;;;;;;24.16;46.89;100925.47;5035074;28;20179;-71
2023/08/26 09:39:15;;;;;;;124.47;119.22;;;;;;;24.18;46.97;100928.72;5034370;28;20045;-73
2023/08/26 09:41:45;;;;;;;123.15;117.93;;;;;;;24.23;46.71;100930.50;5044154;28;20033;-70
2023/08/26 09:44:11;;;;;;;124.35;118.65;;;;;;;24.26;46.83;100932.59;5045861;28;20069;-71
2023/08/26 09:46:39;;;;;;;123.72;118.47;;;;;;;24.29;46.87;100940.19;5035092;28;20049;-71
2023/08/26 09:49:07;;;;;;;122.65;117.45;;;;;;;24.32;46.67;100937.59;5037256;28;20040;-73
2023/08/26 09:51:33;;;;;;;;;;;;;;;24.28;47.09;100933.88;5044535;28;20431;-69
2023/08/26 09:53:59;;;;;;;120.63;115.43;;;;;;;24.35;46.98;100936.13;5038071;28;19987;-70
2023/08/26 09:56:26;;;;;;;120.43;115.22;;;;;;;24.37;47.06;100937.41;5041414;28;20047;-70
2023/08/26 09:58:55;;;;;;;127.45;121.75;;;;;;;24.40;46.79;100935.94;5049546;28;20037;-69
2023/08/26 10:01:22;;;;;;;125.50;120.18;;;;;;;24.44;46.43;100930.56;5045812;28;20483;-70
2023/08/26 10:04:04;;;;;;;120.60;115.25;;;;;;;24.46;46.37;100934.63;5038938;28;20041;-70
2023/08/26 10:06:33;;;;;;;120.20;114.90;;;;;;;24.51;46.61;100939.16;5044858;28;20465;-70
2023/08/26 10:09:07;;;;;;;125.68;120.18;;;;;;;24.53;46.46;100937.69;5040713;28;20033;-69
2023/08/26 10:11:38;;;;;;;122.20;116.97;;;;;;;24.55;46.67;100937.38;5043227;28;20033;-82
2023/08/26 10:14:06;;;;;;;122.38;117.20;;;;;;;24.59;46.78;100941.06;5045335;28;20072;-70
2023/08/26 10:16:32;;;;;;;125.63;120.22;;;;;;;24.59;46.58;100947.44;5039466;28;20226;-70
2023/08/26 10:18:59;;;;;;;125.28;119.97;;;;;;;24.63;46.75;100944.78;5043487;28;20034;-71
2023/08/26 10:21:25;;;;;;;124.75;119.18;;;;;;;24.66;46.52;100940.56;5047896;28;20123;-72
2023/08/26 10:23:51;;;;;;;123.50;117.90;;;;;;;24.69;46.37;100942.66;5042435;28;20029;-71
2023/08/26 10:26:19;;;;;;;127.13;121.43;;;;;;;24.71;46.58;100941.16;5041059;28;20045;-71
2023/08/26 10:28:46;;;;;;;124.83;119.50;;;;;;;24.73;46.73;100941.66;5039549;28;20050;-71
2023/08/26 10:31:14;;;;;;;123.65;118.45;;;;;;;24.75;46.32;100939.38;5034136;28;20039;-71
2023/08/26 10:34:03;;;;;;;126.97;121.43;;;;;;;24.77;46.51;100939.00;5045590;28;20033;-71
2023/08/26 10:36:29;;;;;;;130.95;125.15;;;;;;;24.79;46.25;100931.22;5047075;28;20033;-71
2023/08/26 10:38:58;;;;;;;125.38;120.05;;;;;;;24.82;46.19;100938.81;5042016;28;20103;-71
2023/08/26 10:41:25;;;;;;;126.25;120.82;;;;;;;24.85;46.05;100932.66;5032958;28;20025;-71
2023/08/26 10:43:55;;;;;;;127.15;121.78;;;;;;;24.89;46.52;100943.84;5039058;28;20044;-71
2023/08/26 10:46:36;;;;;;;129.05;123.55;;;;;;;24.90;46.01;100937.19;5030511;28;20033;-70
2023/08/26 10:49:03;;;;;;;123.97;118.68;;;;;;;24.92;46.17;100930.16;5045441;28;20064;-71
2023/08/26 10:51:34;;;;;;;126.75;121.22;;;;;;;24.95;46.30;100931.47;5035399;28;20128;-71